Time;durP1;ratioP1;P1;durP2;ratioP2;P2;SDS_P1;SDS_P2;PMS_P1;PMS_P2;Temp;Humidity;BMP_temperature;BMP_pressure;BME280_temperature;BME280_humidity;BME280_pressure;Samples;Min_cycle;Max_cycle;Signal;HPM_P1;HPM_P2
2023/02/09 00:01:03;;;;;;;13.20;7.07;;;0.90;99.90;;;;;;5014471;28;20038;-63
2023/02/09 00:03:29;;;;;;;13.55;6.68;;;0.90;99.90;;;;;;5016013;28;20038;-63
2023/02/09 00:05:58;;;;;;;14.05;7.43;;;0.90;99.90;;;;;;5010604;28;20091;-64
2023/02/09 00:08:23;;;;;;;15.75;6.88;;;0.90;99.90;;;;;;5004701;28;20080;-64
2023/02/09 00:10:49;;;;;;;15.40;7.55;;;0.90;99.90;;;;;;5018392;28;20069;-64
2023/02/09 00:13:24;;;;;;;14.75;7.05;;;0.90;99.90;;;;;;5015487;28;20050;-63
2023/02/09 00:16:00;;;;;;;14.30;7.45;;;0.90;99.90;;;;;;5016692;28;20092;-64
2023/02/09 00:18:27;;;;;;;14.68;7.43;;;0.90;99.90;;;;;;5016278;28;20065;-64
2023/02/09 00:20:59;;;;;;;14.52;7.10;;;0.90;99.90;;;;;;5028214;28;20048;-64
2023/02/09 00:23:26;;;;;;;12.98;7.47;;;0.90;99.90;;;;;;5018890;28;20057;-60
2023/02/09 00:25:52;;;;;;;13.48;6.85;;;0.90;99.90;;;;;;5021634;28;20108;-64
2023/02/09 00:28:18;;;;;;;13.43;7.32;;;0.90;99.90;;;;;;5029960;28;20025;-63
2023/02/09 00:30:44;;;;;;;17.10;7.72;;;0.80;99.90;;;;;;5025698;28;20045;-64
2023/02/09 00:33:10;;;;;;;16.02;7.10;;;0.80;99.90;;;;;;5012806;28;20044;-64
2023/02/09 00:35:39;;;;;;;16.45;7.90;;;0.80;99.90;;;;;;5022293;28;20041;-63
2023/02/09 00:38:05;;;;;;;14.63;7.63;;;0.80;99.90;;;;;;5023704;28;20709;-64
2023/02/09 00:40:30;;;;;;;15.00;7.53;;;0.70;99.90;;;;;;5010020;28;20038;-64
2023/02/09 00:42:56;;;;;;;15.70;7.25;;;0.80;99.90;;;;;;5026365;28;20100;-64
2023/02/09 00:45:22;;;;;;;15.43;7.88;;;0.80;99.90;;;;;;5012383;28;20030;-63
2023/02/09 00:47:47;;;;;;;12.70;7.05;;;0.80;99.90;;;;;;5021938;28;20403;-61
2023/02/09 00:50:13;;;;;;;13.32;7.22;;;0.70;99.90;;;;;;5021800;28;20041;-63
2023/02/09 00:52:38;;;;;;;18.02;7.80;;;0.80;99.90;;;;;;5022331;28;20045;-63
2023/02/09 00:55:05;;;;;;;14.20;7.68;;;0.80;99.90;;;;;;5011720;28;20030;-63
2023/02/09 00:57:31;;;;;;;15.43;7.75;;;0.80;99.90;;;;;;5013274;28;20033;-64
2023/02/09 00:59:57;;;;;;;15.95;7.63;;;0.70;99.90;;;;;;5019970;28;20125;-64
2023/02/09 01:02:23;;;;;;;14.93;7.88;;;0.70;99.90;;;;;;5009928;28;20094;-64
2023/02/09 01:04:48;;;;;;;15.35;7.57;;;0.70;99.90;;;;;;5017668;28;20045;-61
2023/02/09 01:07:14;;;;;;;15.38;7.80;;;0.70;99.90;;;;;;5017322;28;20033;-64
2023/02/09 01:09:40;;;;;;;12.57;7.32;;;0.70;99.90;;;;;;5012574;28;20034;-62
2023/02/09 01:12:06;;;;;;;14.77;7.68;;;0.60;99.90;;;;;;5011376;28;20041;-64
2023/02/09 01:14:31;;;;;;;16.40;7.75;;;0.60;99.90;;;;;;5016999;28;20034;-63
2023/02/09 01:16:57;;;;;;;14.68;7.80;;;0.60;99.90;;;;;;4998503;28;20136;-63
2023/02/09 01:19:22;;;;;;;14.25;7.65;;;0.60;99.90;;;;;;5004777;28;20511;-63
2023/02/09 01:21:48;;;;;;;14.98;7.63;;;0.50;99.90;;;;;;5006775;28;20069;-64
2023/02/09 01:24:14;;;;;;;16.70;8.00;;;0.50;99.90;;;;;;5028897;28;20117;-64
2023/02/09 01:26:41;;;;;;;15.35;7.90;;;0.50;99.90;;;;;;5015086;28;20037;-63
2023/02/09 01:29:07;;;;;;;13.82;7.32;;;0.50;99.90;;;;;;5020888;28;20033;-63
2023/02/09 01:31:34;;;;;;;13.60;7.38;;;0.40;99.90;;;;;;5014251;28;20088;-61
2023/02/09 01:34:02;;;;;;;15.02;7.65;;;0.40;99.90;;;;;;5017280;28;20435;-64
2023/02/09 01:36:29;;;;;;;15.43;7.53;;;0.40;99.90;;;;;;5015058;28;20036;-64
2023/02/09 01:38:57;;;;;;;19.85;7.72;;;0.40;99.90;;;;;;5020155;28;20392;-63
2023/02/09 01:41:23;;;;;;;14.65;7.55;;;0.40;99.90;;;;;;5026846;28;20049;-64
2023/02/09 01:44:26;;;;;;;13.38;7.45;;;0.40;99.90;;;;;;5016426;28;20679;-64
2023/02/09 01:46:52;;;;;;;18.88;7.65;;;0.40;99.90;;;;;;5030358;28;20124;-63
2023/02/09 01:49:26;;;;;;;16.20;8.27;;;0.30;99.90;;;;;;5028555;28;20117;-63
2023/02/09 01:52:09;;;;;;;14.70;8.05;;;0.30;99.90;;;;;;5014743;28;20048;-63
2023/02/09 01:54:46;;;;;;;15.60;7.72;;;0.30;99.90;;;;;;5018329;28;20508;-64
2023/02/09 01:57:24;;;;;;;15.57;7.40;;;0.30;99.90;;;;;;5029117;28;20046;-63
2023/02/09 01:59:57;;;;;;;15.52;7.35;;;0.30;99.90;;;;;;5015013;28;20075;-63
2023/02/09 02:02:22;;;;;;;;;;;0.30;99.90;;;;;;5020372;28;20404;-63
2023/02/09 02:04:50;;;;;;;15.38;8.27;;;0.20;99.90;;;;;;5028768;28;19924;-63
2023/02/09 02:07:23;;;;;;;12.63;7.43;;;0.20;99.90;;;;;;5020463;28;20033;-64
2023/02/09 02:09:49;;;;;;;15.07;6.65;;;0.20;99.90;;;;;;5016238;28;20496;-63
2023/02/09 02:12:15;;;;;;;14.88;7.38;;;0.20;99.90;;;;;;5018870;28;20053;-64
2023/02/09 02:14:41;;;;;;;16.42;7.63;;;0.10;99.90;;;;;;5023156;28;20033;-64
2023/02/09 02:17:12;;;;;;;16.27;7.53;;;0.10;99.90;;;;;;5021826;28;20037;-64
2023/02/09 02:20:15;;;;;;;14.02;7.63;;;0.10;99.90;;;;;;5019087;28;20050;-61
2023/02/09 02:23:01;;;;;;;14.27;7.40;;;0.10;99.90;;;;;;5017703;28;20038;-64
2023/02/09 02:25:52;;;;;;;14.43;7.22;;;0.00;99.90;;;;;;5003243;28;20445;-63
2023/02/09 02:28:42;;;;;;;17.75;7.85;;;0.00;99.90;;;;;;5007843;28;20068;-63
2023/02/09 02:31:35;;;;;;;13.88;7.47;;;0.00;99.90;;;;;;5017688;28;20396;-64
2023/02/09 02:34:13;;;;;;;14.90;7.53;;;0.00;99.90;;;;;;5002498;28;20041;-63
2023/02/09 02:36:52;;;;;;;16.30;7.68;;;0.00;99.90;;;;;;5011409;28;20061;-64
2023/02/09 02:39:36;;;;;;;18.00;7.30;;;0.00;99.90;;;;;;5003049;28;20164;-63
2023/02/09 02:45:26;;;;;;;16.40;8.68;;;0.00;99.90;;;;;;5017432;28;20403;-63
2023/02/09 02:48:00;;;;;;;14.15;7.22;;;0.00;99.90;;;;;;5023827;28;20088;-61
2023/02/09 02:50:30;;;;;;;15.88;8.18;;;0.00;99.90;;;;;;5019105;28;20492;-60
2023/02/09 02:53:00;;;;;;;13.90;7.25;;;0.00;99.90;;;;;;5010244;28;20033;-60
2023/02/09 02:55:28;;;;;;;14.68;7.35;;;0.00;99.90;;;;;;5013661;28;20144;-60
2023/02/09 02:57:57;;;;;;;14.65;7.57;;;0.00;99.90;;;;;;5021521;28;20492;-60
2023/02/09 03:00:36;;;;;;;14.80;7.82;;;0.00;99.90;;;;;;4999104;28;20099;-60
2023/02/09 03:03:08;;;;;;;16.27;7.72;;;0.00;99.90;;;;;;5021084;28;20560;-61
2023/02/09 03:05:33;;;;;;;15.63;7.75;;;0.00;99.90;;;;;;5004229;28;20052;-62
2023/02/09 03:07:59;;;;;;;14.20;7.25;;;0.00;99.90;;;;;;5019683;28;20045;-63
2023/02/09 03:10:33;;;;;;;17.17;7.90;;;-0.10;99.90;;;;;;5016103;28;20415;-60
2023/02/09 03:13:18;;;;;;;16.48;7.38;;;-0.10;99.90;;;;;;5014234;28;20053;-60
2023/02/09 03:15:48;;;;;;;15.73;8.15;;;-0.10;99.90;;;;;;5029639;28;20381;-60
2023/02/09 03:18:24;;;;;;;13.57;7.28;;;-0.10;99.90;;;;;;4992519;28;20060;-60
2023/02/09 03:21:05;;;;;;;13.98;7.32;;;-0.10;99.90;;;;;;5017480;28;20129;-63
2023/02/09 03:23:52;;;;;;;15.82;8.15;;;-0.10;99.90;;;;;;5012189;28;20033;-61
2023/02/09 03:26:24;;;;;;;15.15;7.68;;;0.40;99.90;;;;;;5016962;28;20504;-63
2023/02/09 03:28:53;;;;;;;14.98;7.32;;;0.00;99.90;;;;;;5014812;28;20141;-61
2023/02/09 03:31:21;;;;;;;15.98;7.53;;;0.00;99.90;;;;;;5002347;28;20048;-61
2023/02/09 03:33:47;;;;;;;13.77;7.10;;;0.00;99.90;;;;;;5018218;28;20065;-61
2023/02/09 03:36:17;;;;;;;18.50;7.22;;;0.00;99.90;;;;;;5012022;28;20077;-61
2023/02/09 03:38:43;;;;;;;15.07;7.55;;;0.00;99.90;;;;;;5013282;28;20158;-61
2023/02/09 03:41:09;;;;;;;14.02;6.70;;;-0.10;99.90;;;;;;5023339;28;20033;-63
2023/02/09 03:46:19;;;;;;;13.88;6.93;;;-0.10;99.90;;;;;;5012914;28;20435;-61
2023/02/09 03:48:44;;;;;;;14.82;7.72;;;-0.10;99.90;;;;;;5017904;28;20033;-64
2023/02/09 03:51:11;;;;;;;15.00;7.18;;;-0.10;99.90;;;;;;5025483;28;20136;-60
2023/02/09 03:53:37;;;;;;;14.90;7.40;;;-0.10;99.90;;;;;;5006357;28;20053;-61
2023/02/09 03:56:04;;;;;;;12.40;6.82;;;-0.10;99.90;;;;;;5007132;28;20166;-62
2023/02/09 03:58:30;;;;;;;12.77;6.95;;;-0.10;99.90;;;;;;5011406;28;20495;-61
2023/02/09 04:01:06;;;;;;;14.77;6.60;;;-0.10;99.90;;;;;;5006531;28;20163;-61
2023/02/09 04:03:33;;;;;;;17.17;7.22;;;-0.10;99.90;;;;;;5025591;28;20029;-61
2023/02/09 04:05:59;;;;;;;16.50;7.38;;;-0.10;99.90;;;;;;5019389;28;20033;-61
2023/02/09 04:08:25;;;;;;;14.60;7.40;;;-0.10;99.90;;;;;;5028169;28;20033;-60
2023/02/09 04:10:51;;;;;;;13.40;7.20;;;-0.10;99.90;;;;;;5016948;28;20468;-61
2023/02/09 04:13:17;;;;;;;13.40;7.03;;;-0.10;99.90;;;;;;5021922;28;20124;-60
2023/02/09 04:15:42;;;;;;;15.30;6.88;;;-0.10;99.90;;;;;;5024347;28;20077;-61
2023/02/09 04:18:09;;;;;;;16.15;7.35;;;-0.10;99.90;;;;;;5010041;28;20060;-61
2023/02/09 04:20:34;;;;;;;15.52;6.75;;;-0.10;99.90;;;;;;5025209;28;20045;-65
2023/02/09 04:23:00;;;;;;;14.88;6.88;;;-0.10;99.90;;;;;;5014906;28;20056;-62
2023/02/09 04:25:25;;;;;;;15.25;7.18;;;-0.10;99.90;;;;;;5010206;28;20104;-63
2023/02/09 04:27:51;;;;;;;15.23;7.20;;;-0.10;99.90;;;;;;5006047;28;20504;-62
2023/02/09 04:30:17;;;;;;;16.17;8.05;;;-0.20;99.90;;;;;;5004292;28;20048;-61
2023/02/09 04:32:42;;;;;;;12.20;7.03;;;-0.20;99.90;;;;;;5015760;28;20541;-61
2023/02/09 04:35:08;;;;;;;13.25;7.28;;;-0.20;99.90;;;;;;5006033;28;20059;-62
2023/02/09 04:37:34;;;;;;;15.55;7.15;;;-0.20;99.90;;;;;;5009920;28;20161;-65
2023/02/09 04:39:59;;;;;;;12.40;6.93;;;-0.20;99.90;;;;;;5020711;28;20396;-61
2023/02/09 04:42:25;;;;;;;11.95;6.20;;;-0.20;99.90;;;;;;5020478;28;20041;-61
2023/02/09 04:44:50;;;;;;;15.35;7.32;;;-0.20;99.90;;;;;;5011425;28;20033;-62
2023/02/09 04:47:16;;;;;;;13.82;6.80;;;-0.20;99.90;;;;;;5013285;28;20435;-64
2023/02/09 04:49:43;;;;;;;13.68;7.22;;;-0.20;99.90;;;;;;5024086;28;20132;-61
2023/02/09 04:52:09;;;;;;;16.02;6.80;;;-0.20;99.90;;;;;;5021626;28;20068;-61
2023/02/09 04:54:35;;;;;;;16.75;7.57;;;-0.20;99.90;;;;;;5014604;28;20045;-62
2023/02/09 04:59:45;;;;;;;16.30;7.15;;;-0.20;99.90;;;;;;5014895;28;20484;-65
2023/02/09 05:02:10;;;;;;;15.13;7.20;;;-0.20;99.90;;;;;;5013942;28;20038;-61
2023/02/09 05:04:36;;;;;;;14.45;7.18;;;-0.20;99.90;;;;;;5017166;28;20037;-62
2023/02/09 05:07:02;;;;;;;16.10;7.32;;;-0.30;99.90;;;;;;5024959;28;20034;-62
2023/02/09 05:09:28;;;;;;;16.50;7.28;;;-0.30;99.90;;;;;;5020345;28;20037;-62
2023/02/09 05:11:53;;;;;;;16.63;7.53;;;-0.30;99.90;;;;;;5016236;28;20042;-62
2023/02/09 05:14:19;;;;;;;15.27;7.82;;;-0.30;99.90;;;;;;5018896;28;20119;-63
2023/02/09 05:16:45;;;;;;;14.13;6.95;;;-0.30;99.90;;;;;;5024541;28;20073;-61
2023/02/09 05:19:10;;;;;;;17.92;7.75;;;-0.30;99.90;;;;;;5024476;28;20033;-62
2023/02/09 05:21:36;;;;;;;14.80;7.07;;;-0.30;99.90;;;;;;5019766;28;20038;-62
2023/02/09 05:24:01;;;;;;;15.70;7.07;;;-0.40;99.90;;;;;;5017363;28;20444;-62
2023/02/09 05:26:27;;;;;;;14.77;7.03;;;-0.40;99.90;;;;;;5014998;28;20481;-64
2023/02/09 05:28:53;;;;;;;18.23;7.70;;;-0.40;99.90;;;;;;5014286;28;20129;-62
2023/02/09 05:31:19;;;;;;;13.40;7.10;;;-0.40;99.90;;;;;;5024947;28;20418;-62
2023/02/09 05:33:44;;;;;;;14.65;7.13;;;-0.40;99.90;;;;;;5021947;28;20114;-63
2023/02/09 05:36:11;;;;;;;13.63;6.90;;;-0.40;99.90;;;;;;5034534;28;20566;-62
2023/02/09 05:38:38;;;;;;;14.00;7.35;;;-0.40;99.90;;;;;;5019553;28;20033;-60
2023/02/09 05:41:09;;;;;;;13.43;7.05;;;-0.40;99.90;;;;;;5015479;28;20104;-62
2023/02/09 05:43:35;;;;;;;14.95;7.20;;;-0.40;99.90;;;;;;5008395;28;20049;-61
2023/02/09 05:46:01;;;;;;;14.55;7.57;;;-0.50;99.90;;;;;;5019190;28;20042;-62
2023/02/09 05:48:28;;;;;;;14.98;7.47;;;-0.50;99.90;;;;;;5013798;28;20049;-60
2023/02/09 05:50:53;;;;;;;15.13;7.32;;;-0.50;99.90;;;;;;5016737;28;20181;-59
2023/02/09 05:53:19;;;;;;;14.43;7.10;;;-1.60;99.90;;;;;;5011994;28;20120;-61
2023/02/09 05:55:46;;;;;;;19.58;7.03;;;-0.50;99.90;;;;;;5009264;28;20046;-61
2023/02/09 05:58:12;;;;;;;15.02;7.32;;;-0.50;99.90;;;;;;5007101;28;20056;-61
2023/02/09 06:00:37;;;;;;;12.82;7.20;;;-0.50;99.90;;;;;;5022982;28;20045;-61
2023/02/09 06:03:03;;;;;;;15.27;7.50;;;-0.50;99.90;;;;;;5016095;28;20065;-62
2023/02/09 06:05:28;;;;;;;15.27;7.30;;;-0.50;99.90;;;;;;5021532;28;20044;-63
2023/02/09 06:07:55;;;;;;;18.98;7.82;;;-0.50;99.90;;;;;;5016491;28;20119;-65
2023/02/09 06:10:21;;;;;;;15.30;7.65;;;-0.50;99.90;;;;;;5019525;28;20109;-64
2023/02/09 06:12:47;;;;;;;15.48;7.45;;;-0.50;99.90;;;;;;5003197;28;20037;-65
2023/02/09 06:15:15;;;;;;;14.60;7.13;;;-0.60;99.90;;;;;;5002145;28;20096;-64
2023/02/09 06:17:41;;;;;;;17.80;8.00;;;-0.60;99.90;;;;;;5005545;28;20140;-61
2023/02/09 06:20:07;;;;;;;15.68;7.88;;;-0.60;99.90;;;;;;5021711;28;20037;-65
2023/02/09 06:22:33;;;;;;;13.77;7.45;;;-0.50;99.90;;;;;;5007138;28;20053;-63
2023/02/09 06:24:58;;;;;;;14.27;7.00;;;-0.60;99.90;;;;;;5031371;28;20377;-60
2023/02/09 06:27:24;;;;;;;15.07;7.22;;;-0.60;99.90;;;;;;5019400;28;20042;-61
2023/02/09 06:29:50;;;;;;;14.23;7.28;;;-0.60;99.90;;;;;;5019753;28;20480;-61
2023/02/09 06:32:15;;;;;;;13.85;7.30;;;-0.60;99.90;;;;;;5017693;28;20041;-61
2023/02/09 06:34:41;;;;;;;14.70;7.20;;;-0.60;99.90;;;;;;5032376;28;20040;-64
2023/02/09 06:37:07;;;;;;;12.80;6.97;;;-0.60;99.90;;;;;;5011402;28;20045;-61
2023/02/09 06:39:32;;;;;;;15.52;7.45;;;-0.60;99.90;;;;;;5016494;28;20462;-61
2023/02/09 06:41:58;;;;;;;13.35;6.82;;;-0.60;99.90;;;;;;5034676;28;20045;-61
2023/02/09 06:44:23;;;;;;;14.07;7.47;;;-0.60;99.90;;;;;;5017292;28;20045;-63
2023/02/09 06:46:49;;;;;;;13.88;7.18;;;-0.60;99.90;;;;;;5008480;28;20140;-62
2023/02/09 06:49:15;;;;;;;13.88;6.80;;;-0.60;99.90;;;;;;5021923;28;20211;-62
2023/02/09 06:51:40;;;;;;;14.05;7.22;;;-0.60;99.90;;;;;;5019493;28;20400;-62
2023/02/09 06:54:06;;;;;;;14.05;7.00;;;-0.60;99.90;;;;;;5014425;28;20030;-62
2023/02/09 06:56:31;;;;;;;15.70;7.60;;;-0.60;99.90;;;;;;5021996;28;20416;-65
2023/02/09 06:58:57;;;;;;;16.05;7.70;;;-0.60;99.90;;;;;;5028953;28;20043;-62
2023/02/09 07:01:23;;;;;;;14.70;7.40;;;-0.60;99.90;;;;;;5019292;28;20481;-62
2023/02/09 07:03:48;;;;;;;13.85;7.00;;;-0.60;99.90;;;;;;5034011;28;20033;-63
2023/02/09 07:06:16;;;;;;;15.82;6.95;;;-0.60;99.90;;;;;;5015213;28;20026;-65
2023/02/09 07:08:43;;;;;;;12.25;6.82;;;-0.60;99.90;;;;;;4999270;28;20072;-65
2023/02/09 07:11:12;;;;;;;13.70;6.95;;;-0.50;99.90;;;;;;5012492;28;20045;-62
2023/02/09 07:13:38;;;;;;;14.23;6.57;;;-0.50;99.90;;;;;;5011758;28;20077;-62
2023/02/09 07:16:06;;;;;;;12.00;6.75;;;-0.50;99.90;;;;;;5003228;28;20075;-61
2023/02/09 07:18:32;;;;;;;15.23;7.40;;;-0.50;99.90;;;;;;5019828;28;20091;-62
2023/02/09 07:21:07;;;;;;;15.00;7.47;;;-0.50;99.90;;;;;;5011503;28;20046;-62
2023/02/09 07:23:33;;;;;;;15.50;7.15;;;-0.50;99.90;;;;;;5015683;28;20046;-62
2023/02/09 07:26:05;;;;;;;15.07;7.13;;;-0.50;99.90;;;;;;5004663;28;20037;-62
2023/02/09 07:28:30;;;;;;;14.02;7.40;;;-0.50;99.90;;;;;;5012656;28;20029;-63
2023/02/09 07:31:05;;;;;;;12.98;6.55;;;-0.40;99.90;;;;;;5008723;28;20037;-61
2023/02/09 07:33:31;;;;;;;15.73;7.82;;;-0.50;99.90;;;;;;5021743;28;20394;-64
2023/02/09 07:35:57;;;;;;;15.57;7.38;;;-0.40;99.90;;;;;;5010764;28;20026;-61
2023/02/09 07:38:22;;;;;;;13.68;7.03;;;-0.40;99.90;;;;;;5016217;28;20060;-61
2023/02/09 07:40:49;;;;;;;14.40;7.28;;;-0.40;99.90;;;;;;5010348;28;20488;-61
2023/02/09 07:43:14;;;;;;;15.23;7.30;;;-0.40;99.90;;;;;;5010824;28;20083;-62
2023/02/09 07:45:41;;;;;;;14.55;7.32;;;-0.40;99.90;;;;;;5024031;28;20486;-62
2023/02/09 07:48:09;;;;;;;14.02;6.95;;;-0.40;99.90;;;;;;5001840;28;20044;-62
2023/02/09 07:50:34;;;;;;;13.65;6.90;;;-0.40;99.90;;;;;;5016720;28;20037;-62
2023/02/09 07:53:00;;;;;;;14.80;7.50;;;-0.30;99.90;;;;;;5005344;28;20068;-62
2023/02/09 07:55:26;;;;;;;15.45;7.78;;;-0.30;99.90;;;;;;5016563;28;20397;-63
2023/02/09 07:57:52;;;;;;;15.65;7.68;;;-0.30;99.90;;;;;;5001570;28;20476;-62
2023/02/09 08:00:18;;;;;;;15.07;7.63;;;-0.20;99.90;;;;;;5016115;28;20053;-63
2023/02/09 08:02:45;;;;;;;16.73;7.25;;;-0.30;99.90;;;;;;5011723;28;20539;-63
2023/02/09 08:05:16;;;;;;;15.65;7.43;;;-0.20;99.90;;;;;;5014182;28;20030;-63
2023/02/09 08:07:42;;;;;;;16.55;6.90;;;-0.10;99.90;;;;;;5011069;28;20485;-63
2023/02/09 08:10:08;;;;;;;15.20;7.40;;;-0.10;99.90;;;;;;5015561;28;20041;-63
2023/02/09 08:15:21;;;;;;;13.75;7.50;;;-0.10;99.90;;;;;;5012908;28;20124;-63
2023/02/09 08:17:51;;;;;;;14.38;7.57;;;-0.10;99.90;;;;;;5009889;28;20045;-63
2023/02/09 08:20:19;;;;;;;15.77;8.00;;;0.00;99.90;;;;;;5010856;28;20091;-63
2023/02/09 08:22:50;;;;;;;15.35;8.07;;;0.00;99.90;;;;;;4992147;28;20077;-63
2023/02/09 08:25:19;;;;;;;17.23;7.63;;;0.00;99.90;;;;;;5010145;28;20065;-63
2023/02/09 08:27:45;;;;;;;19.23;8.32;;;0.20;99.90;;;;;;4997527;28;20033;-63
2023/02/09 08:30:14;;;;;;;16.23;8.40;;;0.10;99.90;;;;;;5010707;28;20034;-63
2023/02/09 08:32:39;;;;;;;16.45;7.78;;;0.20;99.90;;;;;;5014037;28;20049;-63
2023/02/09 08:35:06;;;;;;;13.02;7.07;;;0.20;99.90;;;;;;5016660;28;20030;-63
2023/02/09 08:37:31;;;;;;;15.25;7.35;;;0.30;99.90;;;;;;5012961;28;20041;-63
2023/02/09 08:39:57;;;;;;;14.93;8.15;;;0.30;99.90;;;;;;5005997;28;20034;-63
2023/02/09 08:42:23;;;;;;;13.88;7.53;;;0.40;99.90;;;;;;5010070;28;20515;-63
2023/02/09 08:44:48;;;;;;;14.80;7.70;;;0.40;99.90;;;;;;5018265;28;20594;-63
2023/02/09 08:47:14;;;;;;;18.02;7.88;;;0.40;99.90;;;;;;5013845;28;20189;-63
2023/02/09 08:49:40;;;;;;;14.18;7.97;;;0.40;99.90;;;;;;5011304;28;20042;-63
2023/02/09 08:52:07;;;;;;;14.82;8.20;;;0.50;99.90;;;;;;5014476;28;20041;-63
2023/02/09 08:54:33;;;;;;;13.73;8.00;;;0.50;99.90;;;;;;5011404;28;20052;-63
2023/02/09 08:56:59;;;;;;;16.58;8.07;;;0.50;99.90;;;;;;5002073;28;20045;-63
2023/02/09 08:59:25;;;;;;;15.13;7.80;;;0.60;99.90;;;;;;5011559;28;20037;-63
2023/02/09 09:01:52;;;;;;;17.63;8.32;;;0.60;99.90;;;;;;5011620;28;20050;-63
2023/02/09 09:04:19;;;;;;;23.48;8.90;;;0.70;99.90;;;;;;5013886;28;20037;-63
2023/02/09 09:06:45;;;;;;;14.73;7.55;;;0.70;99.90;;;;;;5012956;28;20067;-62
2023/02/09 09:09:11;;;;;;;17.13;8.43;;;0.80;99.90;;;;;;4994915;28;20046;-63
2023/02/09 09:11:37;;;;;;;19.55;8.85;;;0.80;99.90;;;;;;5011550;28;20053;-63
2023/02/09 09:14:03;;;;;;;16.65;8.52;;;0.90;99.90;;;;;;5018427;28;20038;-63
2023/02/09 09:16:28;;;;;;;16.58;8.27;;;0.90;99.90;;;;;;5012351;28;20033;-63
2023/02/09 09:18:54;;;;;;;16.80;8.50;;;1.00;99.90;;;;;;5019282;28;20476;-63
2023/02/09 09:21:20;;;;;;;17.40;8.35;;;1.00;99.90;;;;;;5017757;28;20073;-63
2023/02/09 09:23:46;;;;;;;16.60;8.30;;;1.10;99.90;;;;;;5011618;28;20048;-63
2023/02/09 09:26:12;;;;;;;17.48;8.50;;;1.10;99.90;;;;;;5008387;28;20192;-63
2023/02/09 09:28:38;;;;;;;14.50;8.38;;;1.10;99.90;;;;;;5013951;28;20046;-63
2023/02/09 09:31:09;;;;;;;17.27;8.20;;;1.20;99.90;;;;;;5015705;28;20033;-62
2023/02/09 09:33:34;;;;;;;21.00;8.93;;;1.20;99.90;;;;;;5013554;28;20052;-63
2023/02/09 09:36:02;;;;;;;15.90;8.40;;;1.20;99.90;;;;;;5015751;28;20475;-63
2023/02/09 09:38:28;;;;;;;15.32;8.48;;;1.30;99.90;;;;;;5018187;28;20554;-63
2023/02/09 09:40:54;;;;;;;16.98;8.27;;;1.30;99.90;;;;;;5018801;28;20029;-63
2023/02/09 09:43:27;;;;;;;14.98;8.38;;;1.40;99.90;;;;;;5003818;28;20041;-63
2023/02/09 09:45:53;;;;;;;14.38;8.15;;;1.40;99.90;;;;;;5013136;28;20050;-63
2023/02/09 09:48:23;;;;;;;16.38;8.63;;;1.50;99.90;;;;;;5016157;28;20021;-63
2023/02/09 09:50:58;;;;;;;16.38;9.07;;;1.50;99.90;;;;;;5017607;28;20044;-63
2023/02/09 09:53:31;;;;;;;17.23;9.25;;;1.50;99.90;;;;;;5014133;28;20049;-63
2023/02/09 09:56:03;;;;;;;17.45;8.80;;;1.50;99.90;;;;;;5005513;28;20480;-63
2023/02/09 09:58:31;;;;;;;17.23;9.05;;;1.60;99.90;;;;;;5012258;28;20444;-63
2023/02/09 10:00:57;;;;;;;16.90;9.20;;;1.70;99.90;;;;;;5017164;28;20041;-63
2023/02/09 10:03:24;;;;;;;17.17;9.30;;;1.70;99.90;;;;;;5015734;28;20066;-63
2023/02/09 10:05:53;;;;;;;15.10;8.50;;;1.80;99.90;;;;;;5008808;28;20459;-63
2023/02/09 10:08:42;;;;;;;17.83;9.13;;;1.80;99.90;;;;;;5010858;28;20121;-63
2023/02/09 10:11:14;;;;;;;17.98;8.80;;;1.90;99.90;;;;;;4994410;28;20076;-63
2023/02/09 10:13:49;;;;;;;18.33;9.05;;;2.00;99.90;;;;;;4993182;28;20081;-63
2023/02/09 10:16:26;;;;;;;14.77;8.45;;;2.00;99.90;;;;;;5009319;28;20042;-64
2023/02/09 10:18:55;;;;;;;18.70;8.95;;;2.10;99.90;;;;;;5010977;28;20049;-63
2023/02/09 10:21:23;;;;;;;16.40;8.98;;;2.10;99.90;;;;;;5008121;28;20049;-63
2023/02/09 10:24:01;;;;;;;17.35;9.20;;;2.10;99.90;;;;;;5021114;28;20044;-63
2023/02/09 10:26:32;;;;;;;17.27;9.48;;;2.20;99.90;;;;;;4992761;28;20127;-63
2023/02/09 10:29:10;;;;;;;17.15;9.00;;;2.30;99.90;;;;;;5011466;28;20095;-63
2023/02/09 10:32:06;;;;;;;18.70;9.25;;;2.30;99.90;;;;;;5009309;28;20048;-63
2023/02/09 10:34:45;;;;;;;16.90;9.10;;;2.40;99.90;;;;;;4994999;28;20050;-63
2023/02/09 10:37:14;;;;;;;18.70;9.07;;;2.50;99.90;;;;;;4996111;28;20505;-63
2023/02/09 10:39:40;;;;;;;17.45;9.57;;;2.50;99.90;;;;;;5015384;28;20057;-63
2023/02/09 10:42:25;;;;;;;19.75;9.13;;;2.60;99.90;;;;;;5016529;28;20052;-63
2023/02/09 10:44:53;;;;;;;19.35;9.55;;;2.60;99.90;;;;;;5002256;28;20510;-63
2023/02/09 10:47:19;;;;;;;18.48;9.32;;;2.70;99.90;;;;;;5020194;28;20113;-63
2023/02/09 10:50:12;;;;;;;18.40;9.82;;;2.70;99.90;;;;;;5015791;28;20124;-63
2023/02/09 10:53:00;;;;;;;20.38;9.70;;;2.80;99.90;;;;;;5021460;28;20154;-63
2023/02/09 10:55:38;;;;;;;16.40;9.63;;;2.80;99.90;;;;;;5017638;28;20192;-63
2023/02/09 10:58:10;;;;;;;18.58;10.15;;;2.90;99.90;;;;;;5015646;28;20408;-63
2023/02/09 11:00:49;;;;;;;19.38;10.77;;;2.90;99.90;;;;;;5008422;28;20464;-63
2023/02/09 11:03:26;;;;;;;19.48;10.05;;;2.90;99.90;;;;;;4990082;28;20089;-64
2023/02/09 11:06:01;;;;;;;18.10;9.80;;;3.00;99.90;;;;;;4993286;28;20121;-63
2023/02/09 11:09:01;;;;;;;17.75;9.60;;;3.00;99.90;;;;;;5007974;28;20041;-63
2023/02/09 11:11:36;;;;;;;20.42;10.23;;;3.10;99.90;;;;;;5003337;28;20500;-63
2023/02/09 11:14:02;;;;;;;17.70;10.02;;;3.10;99.90;;;;;;4995641;28;20038;-63
2023/02/09 11:17:00;;;;;;;17.90;9.68;;;3.20;99.90;;;;;;4987533;28;20046;-63
2023/02/09 11:19:53;;;;;;;16.50;10.20;;;3.20;99.90;;;;;;4990639;28;20131;-62
2023/02/09 11:22:52;;;;;;;18.60;9.90;;;3.20;99.90;;;;;;4997347;28;20036;-63
2023/02/09 11:25:36;;;;;;;17.25;9.70;;;3.20;99.90;;;;;;4991953;28;20037;-63
2023/02/09 11:28:17;;;;;;;21.00;10.70;;;3.30;99.90;;;;;;5014453;28;20073;-63
2023/02/09 11:31:16;;;;;;;20.20;11.05;;;3.40;99.90;;;;;;5020891;28;20034;-63
2023/02/09 11:33:52;;;;;;;17.27;9.82;;;3.50;99.90;;;;;;5010231;28;20515;-63
2023/02/09 11:36:35;;;;;;;19.25;10.05;;;3.70;99.90;;;;;;4986902;28;20696;-63
2023/02/09 11:39:12;;;;;;;18.55;9.80;;;3.80;99.90;;;;;;4996755;28;20041;-63
2023/02/09 11:44:46;;;;;;;18.73;10.45;;;4.00;99.90;;;;;;5001813;28;20049;-63
2023/02/09 11:47:19;;;;;;;21.10;9.95;;;4.00;99.90;;;;;;5010501;28;20029;-63
2023/02/09 11:49:49;;;;;;;;;;;4.00;99.90;;;;;;4994584;28;20076;-62
2023/02/09 11:52:27;;;;;;;20.73;11.13;;;4.00;99.90;;;;;;5019313;28;19921;-63
2023/02/09 11:54:58;;;;;;;19.67;10.75;;;4.00;99.90;;;;;;5019082;28;20037;-63
2023/02/09 11:57:34;;;;;;;20.35;11.02;;;4.00;99.90;;;;;;5017140;28;20041;-63
2023/02/09 12:00:04;;;;;;;19.67;10.60;;;4.00;99.90;;;;;;5009400;28;20492;-62
2023/02/09 12:02:56;;;;;;;24.33;11.35;;;3.90;99.90;;;;;;4993962;28;20038;-62
2023/02/09 12:05:23;;;;;;;20.85;10.88;;;3.90;99.90;;;;;;5012715;28;20033;-62
2023/02/09 12:07:48;;;;;;;19.85;11.25;;;4.00;99.90;;;;;;5000394;28;20065;-62
2023/02/09 12:10:32;;;;;;;19.00;10.90;;;4.00;99.90;;;;;;4992816;28;20065;-63
2023/02/09 12:13:14;;;;;;;19.27;11.02;;;4.00;99.90;;;;;;4987347;28;20477;-62
2023/02/09 12:15:43;;;;;;;19.08;11.73;;;4.10;99.90;;;;;;5007827;28;20556;-61
2023/02/09 12:18:17;;;;;;;19.50;11.38;;;4.20;99.90;;;;;;4998297;28;20554;-61
2023/02/09 12:20:55;;;;;;;20.20;11.48;;;4.20;99.90;;;;;;4990023;28;20054;-65
2023/02/09 12:23:29;;;;;;;23.52;11.80;;;4.30;99.90;;;;;;5008856;28;20535;-61
2023/02/09 12:25:58;;;;;;;20.10;12.38;;;4.30;99.90;;;;;;4991775;28;20327;-60
2023/02/09 12:28:30;;;;;;;25.60;12.27;;;4.40;99.90;;;;;;5009766;28;20034;-61
2023/02/09 12:31:12;;;;;;;19.50;11.30;;;4.40;99.90;;;;;;5005128;28;20042;-61
2023/02/09 12:33:59;;;;;;;25.17;12.30;;;4.50;99.90;;;;;;5007535;28;20627;-61
2023/02/09 12:36:27;;;;;;;19.85;12.30;;;4.50;99.90;;;;;;4987286;28;20064;-64
2023/02/09 12:38:54;;;;;;;23.80;12.15;;;4.60;99.90;;;;;;5007550;28;20141;-65
2023/02/09 12:41:41;;;;;;;19.70;11.63;;;4.60;99.90;;;;;;5014010;28;20033;-62
2023/02/09 12:44:10;;;;;;;21.23;13.02;;;4.60;99.90;;;;;;4985378;28;20044;-66
2023/02/09 12:46:47;;;;;;;25.58;12.13;;;4.70;99.90;;;;;;5008631;28;20037;-61
2023/02/09 12:49:12;;;;;;;23.48;12.52;;;4.60;99.90;;;;;;5000666;28;20076;-64
2023/02/09 12:51:38;;;;;;;22.55;11.90;;;4.60;99.90;;;;;;4990666;28;20049;-63
2023/02/09 12:54:37;;;;;;;21.05;12.57;;;4.50;99.90;;;;;;5007518;28;20455;-61
2023/02/09 12:57:15;;;;;;;22.65;12.25;;;4.50;99.90;;;;;;5001785;28;20042;-62
2023/02/09 12:59:57;;;;;;;21.40;12.38;;;4.40;99.90;;;;;;5006753;28;20046;-65
2023/02/09 13:02:37;;;;;;;21.42;12.23;;;4.40;99.90;;;;;;4990968;28;20665;-61
2023/02/09 13:05:25;;;;;;;20.70;12.63;;;4.40;99.90;;;;;;5000860;28;20040;-65
2023/02/09 13:08:09;;;;;;;23.45;12.35;;;4.40;99.90;;;;;;5005782;28;20045;-65
2023/02/09 13:10:40;;;;;;;21.17;12.48;;;4.40;99.90;;;;;;5013862;28;20045;-62
2023/02/09 13:13:12;;;;;;;23.13;12.85;;;4.40;99.90;;;;;;5008676;28;20059;-65